createdAt,value
2022-11-06T00:01:35.179Z,101433.16
2022-11-06T00:06:37.249Z,101432.28
2022-11-06T00:11:27.065Z,101448.66
2022-11-06T00:16:17.335Z,101424.50
2022-11-06T00:21:13.311Z,101421.06
2022-11-06T00:26:03.143Z,101417.75
2022-11-06T00:30:52.779Z,101422.03
2022-11-06T00:35:43.282Z,101409.88
2022-11-06T00:40:35.979Z,101405.66
2022-11-06T00:45:26.454Z,101391.81
2022-11-06T00:50:16.081Z,101393.59
2022-11-06T00:55:06.110Z,101405.66
2022-11-06T00:59:58.708Z,101410.84
2022-11-06T01:04:50.618Z,101409.97
2022-11-06T01:09:40.240Z,101409.19
2022-11-06T01:14:30.631Z,101422.16
2022-11-06T01:19:24.422Z,101400.53
2022-11-06T01:24:16.647Z,101396.19
2022-11-06T01:29:07.901Z,101402.38
2022-11-06T01:33:58.358Z,101391.97
2022-11-06T01:38:58.857Z,101404.16
2022-11-06T01:43:51.265Z,101399.84
2022-11-06T01:48:43.253Z,101391.25
2022-11-06T01:53:33.439Z,101391.25
2022-11-06T01:58:29.675Z,101384.38
2022-11-06T02:03:19.945Z,101378.34
2022-11-06T02:08:11.259Z,101374.91
2022-11-06T02:13:21.206Z,101370.59
2022-11-06T02:18:30.365Z,101368.88
2022-11-06T02:23:51.104Z,101360.31
2022-11-06T02:28:48.176Z,101333.38
2022-11-06T02:33:42.638Z,101349.09
2022-11-06T02:38:37.582Z,101343.91
2022-11-06T02:43:34.012Z,101352.59
2022-11-06T02:48:31.462Z,101337.97
2022-11-06T02:53:25.886Z,101332.78
2022-11-06T02:58:19.443Z,101342.31
2022-11-06T03:03:15.206Z,101350.06
2022-11-06T03:08:14.841Z,101342.34
2022-11-06T03:13:12.676Z,101332.91
2022-11-06T03:18:12.198Z,101322.53
2022-11-06T03:23:21.276Z,101329.41
2022-11-06T03:28:15.131Z,101300.91
2022-11-06T03:33:13.415Z,101293.06
2022-11-06T03:38:08.610Z,101302.63
2022-11-06T03:43:06.919Z,101284.53
2022-11-06T03:48:03.181Z,101284.53
2022-11-06T03:52:56.124Z,101271.59
2022-11-06T03:57:50.856Z,101282.78
2022-11-06T04:02:46.744Z,101285.41
2022-11-06T04:07:39.713Z,101271.56
2022-11-06T04:12:44.720Z,101254.38
2022-11-06T04:17:35.023Z,101243.13
2022-11-06T04:22:37.382Z,101257.03
2022-11-06T04:27:39.234Z,101234.59
2022-11-06T04:32:36.080Z,101230.34
2022-11-06T04:37:34.497Z,101247.59
2022-11-06T04:42:31.209Z,101230.41
2022-11-06T04:47:24.953Z,101220.91
2022-11-06T04:52:18.683Z,101207.94
2022-11-06T04:57:11.244Z,101213.19
2022-11-06T05:02:03.137Z,101206.34
2022-11-06T05:06:52.895Z,101199.34
2022-11-06T05:11:42.490Z,101206.34
2022-11-06T05:16:34.726Z,101194.22
2022-11-06T05:21:36.801Z,101204.63
2022-11-06T05:26:26.478Z,101207.16
2022-11-06T05:31:16.104Z,101188.97
2022-11-06T05:36:11.069Z,101194.09
2022-11-06T05:41:00.798Z,101192.31
2022-11-06T05:45:50.439Z,101185.38
2022-11-06T05:50:40.181Z,101174.09
2022-11-06T05:55:40.472Z,101159.34
2022-11-06T06:00:30.278Z,101156.69
2022-11-06T06:05:20.279Z,101154.88
2022-11-06T06:10:13.980Z,101140.97
2022-11-06T06:15:10.537Z,101145.25
2022-11-06T06:20:03.398Z,101152.91
2022-11-06T06:24:53.265Z,101148.56
2022-11-06T06:29:42.961Z,101144.97
2022-11-06T06:34:35.418Z,101148.50
2022-11-06T06:39:25.111Z,101099.94
2022-11-06T06:44:14.938Z,101127.84
2022-11-06T06:49:06.373Z,101120.97
2022-11-06T06:53:58.931Z,101128.72
2022-11-06T06:58:48.716Z,101125.28
2022-11-06T07:03:39.960Z,101119.25
2022-11-06T07:08:30.311Z,101110.69
2022-11-06T07:13:22.548Z,101105.53
2022-11-06T07:18:15.975Z,101100.38
2022-11-06T07:23:10.025Z,101115.94
2022-11-06T07:28:03.405Z,101121.13
2022-11-06T07:32:56.947Z,101111.66
2022-11-06T07:37:46.726Z,101105.75
2022-11-06T07:42:42.256Z,101096.34
2022-11-06T07:47:37.129Z,101099.88
2022-11-06T07:52:31.091Z,101099.06
2022-11-06T07:57:21.005Z,101092.25
2022-11-06T08:02:13.704Z,101084.50
2022-11-06T08:07:03.774Z,101088.88
2022-11-06T08:11:56.068Z,101078.63
2022-11-06T08:16:45.813Z,101064.91
2022-11-06T08:21:35.438Z,101058.19
2022-11-06T08:26:25.210Z,101066.09
2022-11-06T08:31:17.860Z,101062.72
2022-11-06T08:36:09.066Z,101055.88
2022-11-06T08:40:58.716Z,101050.78
2022-11-06T08:45:48.464Z,101039.63
2022-11-06T08:50:42.802Z,101037.13
2022-11-06T08:55:32.599Z,101040.66
2022-11-06T09:00:22.332Z,101043.28
2022-11-06T09:05:12.535Z,101037.31
2022-11-06T09:10:04.923Z,101024.41
2022-11-06T09:14:54.720Z,101011.41
2022-11-06T09:19:44.634Z,100995.78
2022-11-06T09:25:01.347Z,101014.81
2022-11-06T09:29:47.998Z,101015.66
2022-11-06T09:34:38.006Z,101019.19
2022-11-06T09:39:27.670Z,101018.34
2022-11-06T09:44:32.861Z,101007.13
2022-11-06T09:49:31.449Z,101010.59
2022-11-06T09:54:25.463Z,100995.91
2022-11-06T09:59:20.381Z,100996.75
2022-11-06T10:04:23.655Z,100988.09
2022-11-06T10:09:17.710Z,100989.84
2022-11-06T10:14:15.601Z,100976.00
2022-11-06T10:19:26.795Z,100978.56
2022-11-06T10:24:25.675Z,100950.91
2022-11-06T10:29:44.957Z,100964.72
2022-11-06T10:34:40.130Z,100951.75
2022-11-06T10:39:34.562Z,100938.81
2022-11-06T10:44:27.588Z,100931.84
2022-11-06T10:49:26.720Z,100918.06
2022-11-06T10:54:31.182Z,100920.59
2022-11-06T10:59:23.756Z,100913.69
2022-11-06T11:04:13.392Z,100917.16
2022-11-06T11:09:03.117Z,100910.28
2022-11-06T11:14:10.115Z,100905.91
2022-11-06T11:19:19.229Z,100894.72
2022-11-06T11:24:11.227Z,100892.13
2022-11-06T11:29:03.448Z,100893.84
2022-11-06T11:33:59.480Z,100892.16
2022-11-06T11:38:51.862Z,100875.78
2022-11-06T11:43:41.489Z,100855.94
2022-11-06T11:48:43.287Z,100841.28
2022-11-06T11:53:35.324Z,100833.53
2022-11-06T11:58:31.134Z,100828.34
2022-11-06T12:03:21.454Z,100818.88
2022-11-06T12:08:24.753Z,100794.72
2022-11-06T12:13:25.800Z,100799.03
2022-11-06T12:18:21.075Z,100785.19
2022-11-06T12:23:18.977Z,100778.28
2022-11-06T12:28:18.723Z,100773.97
2022-11-06T12:33:14.348Z,100773.09
2022-11-06T12:38:16.711Z,100777.44
2022-11-06T12:43:15.932Z,100762.75
2022-11-06T12:48:17.069Z,100778.31
2022-11-06T12:53:30.782Z,100770.53
2022-11-06T12:58:44.458Z,100773.13
2022-11-06T13:04:12.368Z,100770.53
2022-11-06T13:09:11.508Z,100759.31
2022-11-06T13:14:16.287Z,100750.69
2022-11-06T13:19:17.299Z,100750.69
2022-11-06T13:24:25.244Z,100747.19
2022-11-06T13:29:18.655Z,100760.13
2022-11-06T13:34:10.423Z,100750.63
2022-11-06T13:39:06.307Z,100754.06
2022-11-06T13:44:04.036Z,100735.97
2022-11-06T13:49:04.449Z,100735.94
2022-11-06T13:54:04.158Z,100730.75
2022-11-06T13:59:32.746Z,100739.38
2022-11-06T14:05:04.083Z,100722.09
2022-11-06T14:09:54.196Z,100716.88
2022-11-06T14:14:44.019Z,100711.66
2022-11-06T14:19:33.804Z,100703.94
2022-11-06T14:24:44.445Z,100695.25
2022-11-06T14:30:02.460Z,100673.69
2022-11-06T14:34:52.430Z,100671.94
2022-11-06T14:40:15.045Z,100634.03
2022-11-06T14:45:14.204Z,100643.50
2022-11-06T14:50:26.892Z,100647.78
2022-11-06T14:55:32.540Z,100627.06
2022-11-06T15:00:39.615Z,100634.78
2022-11-06T15:05:32.603Z,100617.56
2022-11-06T15:11:03.029Z,100609.81
2022-11-06T15:16:01.714Z,100589.06
2022-11-06T15:20:56.539Z,100588.22
2022-11-06T15:25:58.739Z,100584.72
2022-11-06T15:31:12.413Z,100556.25
2022-11-06T15:36:13.533Z,100558.84
2022-11-06T15:41:12.827Z,100554.47
2022-11-06T15:46:21.810Z,100555.22
2022-11-06T15:51:24.387Z,100546.66
2022-11-06T15:56:18.486Z,100528.50
2022-11-06T16:01:10.104Z,100544.84
2022-11-06T16:06:07.050Z,100530.16
2022-11-06T16:10:58.513Z,100525.84
2022-11-06T16:15:54.736Z,100519.81
2022-11-06T16:20:45.783Z,100497.44
2022-11-06T16:25:38.163Z,100492.28
2022-11-06T16:30:33.999Z,100505.16
2022-11-06T16:35:33.105Z,100518.03
2022-11-06T16:40:56.788Z,100509.44
2022-11-06T16:46:06.946Z,100519.72
2022-11-06T16:50:59.584Z,100501.66
2022-11-06T16:56:02.271Z,100487.94
2022-11-06T17:01:00.156Z,100501.72
2022-11-06T17:05:57.435Z,100502.56
2022-11-06T17:10:47.775Z,100520.63
2022-11-06T17:15:40.095Z,100513.75
2022-11-06T17:20:30.967Z,100522.34
2022-11-06T17:25:23.110Z,100519.75
2022-11-06T17:30:17.805Z,100509.38
2022-11-06T17:35:11.982Z,100526.59
2022-11-06T17:40:01.869Z,100528.38
2022-11-06T17:44:51.591Z,100518.91
2022-11-06T17:49:43.729Z,100524.09
2022-11-06T17:54:37.486Z,100528.44
2022-11-06T17:59:27.928Z,100519.03
2022-11-06T18:04:19.871Z,100528.47
2022-11-06T18:09:10.689Z,100510.50
2022-11-06T18:14:03.393Z,100522.53
2022-11-06T18:18:53.368Z,100503.63
2022-11-06T18:23:45.641Z,100513.97
2022-11-06T18:28:35.357Z,100508.84
2022-11-06T18:33:28.967Z,100508.00
2022-11-06T18:38:19.155Z,100501.16
2022-11-06T18:43:08.995Z,100505.50
2022-11-06T18:47:58.952Z,100496.94
2022-11-06T18:52:57.937Z,100503.78
2022-11-06T18:57:48.142Z,100493.47
2022-11-06T19:02:41.616Z,100493.50
2022-11-06T19:07:31.420Z,100493.53
2022-11-06T19:12:23.900Z,100487.53
2022-11-06T19:17:13.626Z,100515.03
2022-11-06T19:22:03.287Z,100513.38
2022-11-06T19:26:53.079Z,100502.19
2022-11-06T19:31:45.869Z,100503.97
2022-11-06T19:36:35.945Z,100526.34
2022-11-06T19:41:27.711Z,100515.16
2022-11-06T19:46:24.665Z,100508.31
2022-11-06T19:51:19.389Z,100524.72
2022-11-06T19:56:10.250Z,100524.72
2022-11-06T20:01:00.075Z,100523.88
2022-11-06T20:05:49.830Z,100533.38
2022-11-06T20:10:42.517Z,100538.53
2022-11-06T20:15:33.191Z,100523.91
2022-11-06T20:20:22.861Z,100525.66
2022-11-06T20:25:13.110Z,100545.44
2022-11-06T20:30:05.803Z,100530.84
2022-11-06T20:34:55.683Z,100541.16
2022-11-06T20:39:47.718Z,100548.03
2022-11-06T20:44:37.556Z,100560.97
2022-11-06T20:49:29.887Z,100565.28
2022-11-06T20:54:19.573Z,100579.91
2022-11-06T20:59:10.281Z,100579.06
2022-11-06T21:04:00.838Z,100591.94
2022-11-06T21:08:54.012Z,100602.28
2022-11-06T21:13:44.606Z,100595.41
2022-11-06T21:18:37.000Z,100602.28
2022-11-06T21:23:30.198Z,100608.34
2022-11-06T21:28:23.793Z,100618.66
2022-11-06T21:33:13.905Z,100637.59
2022-11-06T21:38:03.729Z,100624.69
2022-11-06T21:42:53.408Z,100601.41
2022-11-06T21:47:45.721Z,100630.75
2022-11-06T21:52:47.870Z,100635.91
2022-11-06T21:57:37.539Z,100637.59
2022-11-06T22:02:27.355Z,100639.34
2022-11-06T22:07:20.029Z,100636.78
2022-11-06T22:12:09.866Z,100641.09
2022-11-06T22:16:59.543Z,100646.25
2022-11-06T22:21:49.254Z,100635.03
2022-11-06T22:26:42.019Z,100648.84
2022-11-06T22:31:32.626Z,100655.72
2022-11-06T22:36:23.324Z,100650.59
2022-11-06T22:41:16.091Z,100648.00
2022-11-06T22:46:11.350Z,100653.19
2022-11-06T22:51:04.853Z,100674.72
2022-11-06T22:55:57.879Z,100656.66
2022-11-06T23:00:47.569Z,100673.06
2022-11-06T23:05:41.729Z,100661.88
2022-11-06T23:10:35.071Z,100684.25
2022-11-06T23:15:24.794Z,100682.53
2022-11-06T23:20:14.611Z,100678.22
2022-11-06T23:25:08.800Z,100678.22
2022-11-06T23:30:00.739Z,100691.16
2022-11-06T23:34:50.513Z,100660.97
2022-11-06T23:39:40.285Z,100667.84
2022-11-06T23:44:45.337Z,100692.00
2022-11-06T23:49:37.445Z,100695.47
2022-11-06T23:54:28.069Z,100703.22
2022-11-06T23:59:17.814Z,100712.72
